createdAt,value
2022-10-22T00:00:05.998Z,13.42
2022-10-22T00:02:36.440Z,13.43
2022-10-22T00:05:08.722Z,13.44
2022-10-22T00:07:39.521Z,13.46
2022-10-22T00:10:11.313Z,13.49
2022-10-22T00:12:41.833Z,13.51
2022-10-22T00:15:13.877Z,13.54
2022-10-22T00:17:44.458Z,13.56
2022-10-22T00:20:15.360Z,13.57
2022-10-22T00:22:45.849Z,13.59
2022-10-22T00:25:17.269Z,13.61
2022-10-22T00:27:47.808Z,13.64
2022-10-22T00:30:18.575Z,13.66
2022-10-22T00:32:49.258Z,13.65
2022-10-22T00:35:20.332Z,13.61
2022-10-22T00:37:50.983Z,13.58
2022-10-22T00:40:22.126Z,13.56
2022-10-22T00:42:52.653Z,13.54
2022-10-22T00:45:25.894Z,13.54
2022-10-22T00:48:00.479Z,13.55
2022-10-22T00:50:34.426Z,13.55
2022-10-22T00:53:08.794Z,13.54
2022-10-22T00:55:40.168Z,13.53
2022-10-22T00:58:11.114Z,13.49
2022-10-22T01:00:41.939Z,13.45
2022-10-22T01:03:14.105Z,13.39
2022-10-22T01:05:47.978Z,13.36
2022-10-22T01:08:24.379Z,13.32
2022-10-22T01:11:03.010Z,13.28
2022-10-22T01:13:40.602Z,13.23
2022-10-22T01:16:15.682Z,13.21
2022-10-22T01:18:50.770Z,13.21
2022-10-22T01:21:29.266Z,13.20
2022-10-22T01:24:24.858Z,13.20
2022-10-22T01:27:07.624Z,13.20
2022-10-22T01:29:40.546Z,13.20
2022-10-22T01:32:14.023Z,13.19
2022-10-22T01:34:47.395Z,13.19
2022-10-22T01:37:19.818Z,13.20
2022-10-22T01:39:50.828Z,13.22
2022-10-22T01:42:21.873Z,13.24
2022-10-22T01:44:52.804Z,13.25
2022-10-22T01:47:33.310Z,13.24
2022-10-22T01:50:39.611Z,13.22
2022-10-22T01:53:20.398Z,13.19
2022-10-22T01:56:03.329Z,13.17
2022-10-22T01:58:42.540Z,13.16
2022-10-22T02:01:18.954Z,13.16
2022-10-22T02:03:54.015Z,13.16
2022-10-22T02:06:27.376Z,13.16
2022-10-22T02:08:58.251Z,13.16
2022-10-22T02:11:28.988Z,13.17
2022-10-22T02:14:01.174Z,13.17
2022-10-22T02:16:33.531Z,13.16
2022-10-22T02:19:07.199Z,13.16
2022-10-22T02:21:37.920Z,13.16
2022-10-22T02:24:09.286Z,13.17
2022-10-22T02:26:42.976Z,13.18
2022-10-22T02:29:16.729Z,13.18
2022-10-22T02:31:47.929Z,13.16
2022-10-22T02:34:20.782Z,13.14
2022-10-22T02:36:50.524Z,13.10
2022-10-22T02:39:21.667Z,13.05
2022-10-22T02:41:52.046Z,12.99
2022-10-22T02:44:25.215Z,12.97
2022-10-22T02:46:55.680Z,12.96
2022-10-22T02:49:26.130Z,12.95
2022-10-22T02:51:56.512Z,12.96
2022-10-22T02:54:27.085Z,12.94
2022-10-22T02:56:57.601Z,12.93
2022-10-22T02:59:28.032Z,12.92
2022-10-22T03:01:58.512Z,12.93
2022-10-22T03:04:29.152Z,12.93
2022-10-22T03:06:59.508Z,12.95
2022-10-22T03:09:30.241Z,12.97
2022-10-22T03:12:00.656Z,13.00
2022-10-22T03:14:31.173Z,13.04
2022-10-22T03:17:01.610Z,13.06
2022-10-22T03:19:32.149Z,13.09
2022-10-22T03:22:05.446Z,13.10
2022-10-22T03:24:38.952Z,13.08
2022-10-22T03:27:09.454Z,13.10
2022-10-22T03:29:41.195Z,13.12
2022-10-22T03:32:11.614Z,13.12
2022-10-22T03:34:42.260Z,13.14
2022-10-22T03:37:12.834Z,13.15
2022-10-22T03:39:43.516Z,13.16
2022-10-22T03:42:14.279Z,13.17
2022-10-22T03:44:44.955Z,13.15
2022-10-22T03:47:15.563Z,13.13
2022-10-22T03:49:46.101Z,13.13
2022-10-22T03:52:17.402Z,13.13
2022-10-22T03:54:47.853Z,13.14
2022-10-22T03:57:18.408Z,13.13
2022-10-22T03:59:49.051Z,13.12
2022-10-22T04:02:19.559Z,13.11
2022-10-22T04:04:49.957Z,13.09
2022-10-22T04:07:20.406Z,13.09
2022-10-22T04:09:50.793Z,13.09
2022-10-22T04:12:21.215Z,13.08
2022-10-22T04:14:51.608Z,13.07
2022-10-22T04:17:22.004Z,13.07
2022-10-22T04:19:52.327Z,13.06
2022-10-22T04:22:22.680Z,13.05
2022-10-22T04:24:52.995Z,13.03
2022-10-22T04:27:23.340Z,13.00
2022-10-22T04:29:54.580Z,12.98
2022-10-22T04:32:24.873Z,12.97
2022-10-22T04:34:55.247Z,12.95
2022-10-22T04:37:25.664Z,12.92
2022-10-22T04:39:58.098Z,12.89
2022-10-22T04:42:28.915Z,12.86
2022-10-22T04:44:59.260Z,12.82
2022-10-22T04:47:29.575Z,12.78
2022-10-22T04:49:59.890Z,12.76
2022-10-22T04:52:30.212Z,12.75
2022-10-22T04:55:00.520Z,12.74
2022-10-22T04:57:33.273Z,12.71
2022-10-22T05:00:03.706Z,12.69
2022-10-22T05:02:34.044Z,12.68
2022-10-22T05:05:06.866Z,12.69
2022-10-22T05:07:35.735Z,12.68
2022-10-22T05:10:06.750Z,12.69
2022-10-22T05:12:37.397Z,12.69
2022-10-22T05:15:09.545Z,12.73
2022-10-22T05:17:40.225Z,12.76
2022-10-22T05:20:12.192Z,12.77
2022-10-22T05:22:42.626Z,12.77
2022-10-22T05:25:13.196Z,12.76
2022-10-22T05:27:43.697Z,12.76
2022-10-22T05:30:15.027Z,12.76
2022-10-22T05:32:45.662Z,12.76
2022-10-22T05:35:16.252Z,12.78
2022-10-22T05:37:46.773Z,12.78
2022-10-22T05:40:30.640Z,12.78
2022-10-22T05:43:02.289Z,12.78
2022-10-22T05:45:32.673Z,12.78
2022-10-22T05:48:03.114Z,12.77
2022-10-22T05:50:33.503Z,12.76
2022-10-22T05:53:03.901Z,12.73
2022-10-22T05:55:38.807Z,12.69
2022-10-22T05:58:10.026Z,12.68
2022-10-22T06:00:40.740Z,12.68
2022-10-22T06:03:11.063Z,12.68
2022-10-22T06:05:41.498Z,12.68
2022-10-22T06:08:18.231Z,12.67
2022-10-22T06:10:49.552Z,12.67
2022-10-22T06:13:19.977Z,12.68
2022-10-22T06:15:50.336Z,12.69
2022-10-22T06:18:20.836Z,12.70
2022-10-22T06:20:51.301Z,12.68
2022-10-22T06:23:21.688Z,12.66
2022-10-22T06:25:59.870Z,12.64
2022-10-22T06:28:30.612Z,12.64
2022-10-22T06:31:01.756Z,12.63
2022-10-22T06:33:34.064Z,12.63
2022-10-22T06:36:09.609Z,12.63
2022-10-22T06:38:40.044Z,12.64
2022-10-22T06:41:12.421Z,12.65
2022-10-22T06:43:45.188Z,12.64
2022-10-22T06:46:19.841Z,12.60
2022-10-22T06:48:53.578Z,12.56
2022-10-22T06:51:24.216Z,12.52
2022-10-22T06:53:55.637Z,12.51
2022-10-22T06:56:28.119Z,12.52
2022-10-22T06:58:59.597Z,12.55
2022-10-22T07:01:32.977Z,12.60
2022-10-22T07:04:04.415Z,12.69
2022-10-22T07:06:34.868Z,12.81
2022-10-22T07:09:05.363Z,12.97
2022-10-22T07:11:41.368Z,13.42
2022-10-22T07:14:12.685Z,14.03
2022-10-22T07:16:43.289Z,14.61
2022-10-22T07:19:14.329Z,15.17
2022-10-22T07:21:44.954Z,15.62
2022-10-22T07:24:15.335Z,16.00
2022-10-22T07:26:45.728Z,16.32
2022-10-22T07:29:16.357Z,16.50
2022-10-22T07:31:46.881Z,16.54
2022-10-22T07:34:17.624Z,16.65
2022-10-22T07:36:50.540Z,16.96
2022-10-22T07:39:20.915Z,17.33
2022-10-22T07:41:51.268Z,17.74
2022-10-22T07:44:21.600Z,18.09
2022-10-22T07:46:51.960Z,18.18
2022-10-22T07:49:22.428Z,17.99
2022-10-22T07:51:53.324Z,17.67
2022-10-22T07:54:23.787Z,17.38
2022-10-22T07:56:54.376Z,17.30
2022-10-22T07:59:24.991Z,17.16
2022-10-22T08:01:55.440Z,17.32
2022-10-22T08:04:25.832Z,17.68
2022-10-22T08:06:56.060Z,18.00
2022-10-22T08:09:26.448Z,18.29
2022-10-22T08:11:56.784Z,18.66
2022-10-22T08:14:28.472Z,19.04
2022-10-22T08:16:58.840Z,19.33
2022-10-22T08:19:31.264Z,19.46
2022-10-22T08:22:01.731Z,19.67
2022-10-22T08:24:35.292Z,19.80
2022-10-22T08:27:05.869Z,19.86
2022-10-22T08:29:36.416Z,19.80
2022-10-22T08:32:07.434Z,19.85
2022-10-22T08:34:37.939Z,19.97
2022-10-22T08:37:08.495Z,20.09
2022-10-22T08:39:39.343Z,20.17
2022-10-22T08:42:26.637Z,19.80
2022-10-22T08:45:07.845Z,19.25
2022-10-22T08:47:52.664Z,18.99
2022-10-22T08:50:28.324Z,18.95
2022-10-22T08:53:02.356Z,18.80
2022-10-22T08:55:36.592Z,18.78
2022-10-22T08:58:17.516Z,18.31
2022-10-22T09:00:51.864Z,18.06
2022-10-22T09:03:32.110Z,17.88
2022-10-22T09:06:06.768Z,18.01
2022-10-22T09:08:37.838Z,17.95
2022-10-22T09:11:17.904Z,17.76
2022-10-22T09:13:48.733Z,17.59
2022-10-22T09:16:21.429Z,17.50
2022-10-22T09:19:02.061Z,17.21
2022-10-22T09:21:39.515Z,17.08
2022-10-22T09:24:14.382Z,17.05
2022-10-22T09:26:46.807Z,17.19
2022-10-22T09:29:22.468Z,17.15
2022-10-22T09:31:53.562Z,17.15
2022-10-22T09:34:24.264Z,17.13
2022-10-22T09:37:01.598Z,17.13
2022-10-22T09:39:38.166Z,17.10
2022-10-22T09:42:09.410Z,17.10
2022-10-22T09:44:42.711Z,17.02
2022-10-22T09:47:42.547Z,16.95
2022-10-22T09:50:23.630Z,16.91
2022-10-22T09:53:01.335Z,17.53
2022-10-22T09:55:32.013Z,18.55
2022-10-22T09:58:04.047Z,19.47
2022-10-22T10:00:33.715Z,20.32
2022-10-22T10:03:05.296Z,21.14
2022-10-22T10:05:37.926Z,21.77
2022-10-22T10:08:15.909Z,22.35
2022-10-22T10:10:50.413Z,23.09
2022-10-22T10:13:34.970Z,23.73
2022-10-22T10:16:11.205Z,24.13
2022-10-22T10:18:51.167Z,24.08
2022-10-22T10:21:31.337Z,23.68
2022-10-22T10:24:07.130Z,23.20
2022-10-22T10:26:40.342Z,23.04
2022-10-22T10:29:24.389Z,22.66
2022-10-22T10:32:21.057Z,21.99
2022-10-22T10:35:05.548Z,21.35
2022-10-22T10:37:42.319Z,20.95
2022-10-22T10:40:26.551Z,20.35
2022-10-22T10:43:04.985Z,19.82
2022-10-22T10:45:42.918Z,19.66
2022-10-22T10:48:35.245Z,19.88
2022-10-22T10:51:17.039Z,20.62
2022-10-22T10:54:01.677Z,20.82
2022-10-22T10:56:43.063Z,20.95
2022-10-22T10:59:24.255Z,21.46
2022-10-22T11:02:16.096Z,22.48
2022-10-22T11:05:07.683Z,22.75
2022-10-22T11:07:43.514Z,22.41
2022-10-22T11:10:35.710Z,22.00
2022-10-22T11:13:13.292Z,21.54
2022-10-22T11:15:46.937Z,21.36
2022-10-22T11:18:21.881Z,20.90
2022-10-22T11:21:08.710Z,20.29
2022-10-22T11:23:49.114Z,19.69
2022-10-22T11:26:31.525Z,19.21
2022-10-22T11:34:45.689Z,18.33
2022-10-22T11:37:16.538Z,18.18
2022-10-22T11:39:50.933Z,18.18
2022-10-22T11:42:35.389Z,18.20
2022-10-22T11:45:08.743Z,18.20
2022-10-22T11:47:55.269Z,18.21
2022-10-22T11:50:31.953Z,18.13
2022-10-22T11:53:07.803Z,18.12
2022-10-22T11:55:48.587Z,17.99
2022-10-22T11:58:44.013Z,17.82
2022-10-22T12:01:25.038Z,17.68
2022-10-22T12:04:16.102Z,17.55
2022-10-22T12:06:58.825Z,17.38
2022-10-22T12:09:32.892Z,17.26
2022-10-22T12:12:16.277Z,17.26
2022-10-22T12:15:03.849Z,17.51
2022-10-22T12:17:34.346Z,17.73
2022-10-22T12:20:12.715Z,17.89
2022-10-22T12:22:43.458Z,18.23
2022-10-22T12:25:22.002Z,18.67
2022-10-22T12:28:01.149Z,18.90
2022-10-22T12:30:34.687Z,19.66
2022-10-22T12:33:07.300Z,21.27
2022-10-22T12:35:47.317Z,22.80
2022-10-22T12:38:22.616Z,24.01
2022-10-22T12:40:58.285Z,24.97
2022-10-22T12:43:33.509Z,25.70
2022-10-22T12:46:06.076Z,26.25
2022-10-22T12:48:44.873Z,26.56
2022-10-22T12:51:22.722Z,26.84
2022-10-22T12:54:10.148Z,26.81
2022-10-22T12:56:40.670Z,26.44
2022-10-22T12:59:19.038Z,26.18
2022-10-22T13:01:51.217Z,25.03
2022-10-22T13:04:34.660Z,23.78
2022-10-22T13:07:19.840Z,22.50
2022-10-22T13:10:01.656Z,21.48
2022-10-22T13:12:38.325Z,20.64
2022-10-22T13:15:37.387Z,19.95
2022-10-22T13:18:19.402Z,19.37
2022-10-22T13:20:57.625Z,19.06
2022-10-22T13:23:29.944Z,18.81
2022-10-22T13:26:02.517Z,18.60
2022-10-22T13:28:31.460Z,18.45
2022-10-22T13:31:03.972Z,18.29
2022-10-22T13:33:36.998Z,18.14
2022-10-22T13:36:08.126Z,18.02
2022-10-22T13:38:38.729Z,17.88
2022-10-22T13:41:21.259Z,17.82
2022-10-22T13:43:51.906Z,17.80
2022-10-22T13:46:23.000Z,17.83
2022-10-22T13:48:56.142Z,17.93
2022-10-22T13:51:28.858Z,18.03
2022-10-22T13:53:57.730Z,18.07
2022-10-22T13:56:28.103Z,17.99
2022-10-22T13:58:58.459Z,17.89
2022-10-22T14:01:29.864Z,17.73
2022-10-22T14:04:02.496Z,17.50
2022-10-22T14:09:15.275Z,17.25
2022-10-22T14:11:46.027Z,17.24
2022-10-22T14:14:17.363Z,17.25
2022-10-22T14:16:47.965Z,17.25
2022-10-22T14:19:20.384Z,17.27
2022-10-22T14:21:50.709Z,17.37
2022-10-22T14:24:21.177Z,17.41
2022-10-22T14:26:51.640Z,17.47
2022-10-22T14:29:22.149Z,17.50
2022-10-22T14:31:52.552Z,17.48
2022-10-22T14:34:23.075Z,17.40
2022-10-22T14:36:53.958Z,17.25
2022-10-22T14:39:24.484Z,17.10
2022-10-22T14:41:54.922Z,17.00
2022-10-22T14:44:25.528Z,16.87
2022-10-22T14:46:56.414Z,16.73
2022-10-22T14:53:57.231Z,16.47
2022-10-22T14:56:27.883Z,16.42
2022-10-22T14:58:58.451Z,16.41
2022-10-22T15:01:29.003Z,16.44
2022-10-22T15:04:01.808Z,16.48
2022-10-22T15:06:32.307Z,16.45
2022-10-22T15:09:02.837Z,16.40
2022-10-22T15:11:33.451Z,16.31
2022-10-22T15:14:03.931Z,16.21
2022-10-22T15:16:34.313Z,16.09
2022-10-22T15:19:04.860Z,15.93
2022-10-22T15:21:35.409Z,15.78
2022-10-22T15:24:07.285Z,15.64
2022-10-22T15:26:37.733Z,15.50
2022-10-22T15:29:08.260Z,15.37
2022-10-22T15:31:49.190Z,15.23
2022-10-22T15:34:24.867Z,15.09
2022-10-22T15:36:57.531Z,14.97
2022-10-22T15:39:28.242Z,14.90
2022-10-22T15:41:59.803Z,14.82
2022-10-22T15:44:31.641Z,14.76
2022-10-22T15:47:03.199Z,14.68
2022-10-22T15:49:34.520Z,14.65
2022-10-22T15:52:05.723Z,14.61
2022-10-22T15:54:36.150Z,14.55
2022-10-22T15:57:08.590Z,14.54
2022-10-22T15:59:39.017Z,14.50
2022-10-22T16:02:10.554Z,14.43
2022-10-22T16:04:41.896Z,14.32
2022-10-22T16:07:12.237Z,14.26
2022-10-22T16:09:42.625Z,14.18
2022-10-22T16:12:15.277Z,14.10
2022-10-22T16:14:47.895Z,14.02
2022-10-22T16:17:18.310Z,13.91
2022-10-22T16:19:49.790Z,13.85
2022-10-22T16:22:20.266Z,13.74
2022-10-22T16:24:50.639Z,13.64
2022-10-22T16:27:21.096Z,13.55
2022-10-22T16:29:51.500Z,13.44
2022-10-22T16:39:29.205Z,13.23
2022-10-22T16:41:59.699Z,13.13
2022-10-22T16:44:30.191Z,13.06
2022-10-22T16:47:00.901Z,12.99
2022-10-22T16:49:31.309Z,12.94
2022-10-22T16:52:01.719Z,12.88
2022-10-22T16:54:32.150Z,12.81
2022-10-22T16:57:02.520Z,12.75
2022-10-22T16:59:33.172Z,12.67
2022-10-22T17:04:36.601Z,12.53
2022-10-22T17:07:06.975Z,12.48
2022-10-22T17:09:37.356Z,12.43
2022-10-22T17:12:08.392Z,12.38
2022-10-22T17:14:38.890Z,12.35
2022-10-22T17:17:09.540Z,12.31
2022-10-22T17:19:39.936Z,12.27
2022-10-22T17:22:13.668Z,12.22
2022-10-22T17:24:46.724Z,12.16
2022-10-22T17:27:17.110Z,12.12
2022-10-22T17:29:47.540Z,12.10
2022-10-22T17:32:20.029Z,12.06
2022-10-22T17:34:50.683Z,12.03
2022-10-22T17:37:21.092Z,12.00
2022-10-22T17:39:51.893Z,11.99
2022-10-22T17:42:22.471Z,11.97
2022-10-22T17:44:52.909Z,11.95
2022-10-22T17:47:24.127Z,11.92
2022-10-22T17:49:54.565Z,11.92
2022-10-22T17:52:24.992Z,11.89
2022-10-22T17:54:55.700Z,11.90
2022-10-22T17:57:26.211Z,11.89
2022-10-22T17:59:56.637Z,11.92
2022-10-22T18:02:27.239Z,11.91
2022-10-22T18:04:58.965Z,11.89
2022-10-22T18:07:29.365Z,11.88
2022-10-22T18:09:59.846Z,11.87
2022-10-22T18:12:30.295Z,11.87
2022-10-22T18:15:00.642Z,11.86
2022-10-22T18:17:34.624Z,11.86
2022-10-22T18:20:09.383Z,11.86
2022-10-22T18:22:41.273Z,11.86
2022-10-22T18:25:12.383Z,11.85
2022-10-22T18:27:43.116Z,11.84
2022-10-22T18:30:14.565Z,11.84
2022-10-22T18:32:45.120Z,11.84
2022-10-22T18:35:15.575Z,11.84
2022-10-22T18:37:46.039Z,11.83
2022-10-22T18:40:17.062Z,11.81
2022-10-22T18:42:47.598Z,11.77
2022-10-22T18:45:18.159Z,11.72
2022-10-22T18:47:48.833Z,11.69
2022-10-22T18:50:19.410Z,11.67
2022-10-22T18:52:50.000Z,11.64
2022-10-22T18:55:23.792Z,11.63
2022-10-22T18:57:54.262Z,11.56
2022-10-22T19:00:26.530Z,11.58
2022-10-22T19:02:57.002Z,11.56
2022-10-22T19:05:29.644Z,11.53
2022-10-22T19:08:00.255Z,11.50
2022-10-22T19:10:30.889Z,11.50
2022-10-22T19:13:01.457Z,11.51
2022-10-22T19:15:31.960Z,11.51
2022-10-22T19:18:02.461Z,11.52
2022-10-22T19:20:32.927Z,11.53
2022-10-22T19:23:03.458Z,11.52
2022-10-22T19:25:33.977Z,11.50
2022-10-22T19:28:07.108Z,11.48
2022-10-22T19:30:44.773Z,11.47
2022-10-22T19:33:16.530Z,11.47
2022-10-22T19:35:46.919Z,11.47
2022-10-22T19:38:17.352Z,11.47
2022-10-22T19:40:47.946Z,11.48
2022-10-22T19:43:19.128Z,11.46
2022-10-22T19:45:50.085Z,11.45
2022-10-22T19:48:20.530Z,11.44
2022-10-22T19:50:53.145Z,11.44
2022-10-22T19:53:23.648Z,11.44
2022-10-22T19:55:54.112Z,11.44
2022-10-22T19:58:24.575Z,11.45
2022-10-22T20:00:55.417Z,11.45
2022-10-22T20:03:25.905Z,11.45
2022-10-22T20:05:56.657Z,11.42
2022-10-22T20:08:27.055Z,11.45
2022-10-22T20:10:57.731Z,11.47
2022-10-22T20:13:29.017Z,11.48
2022-10-22T20:16:00.522Z,11.50
2022-10-22T20:18:32.672Z,11.52
2022-10-22T20:21:05.988Z,11.54
2022-10-22T20:23:36.745Z,11.55
2022-10-22T20:26:07.882Z,11.58
2022-10-22T20:28:38.966Z,11.60
2022-10-22T20:31:12.466Z,11.64
2022-10-22T20:33:43.046Z,11.67
2022-10-22T20:36:17.129Z,11.70
2022-10-22T20:38:48.246Z,11.72
2022-10-22T20:41:23.043Z,11.73
2022-10-22T20:43:54.073Z,11.74
2022-10-22T20:46:25.701Z,11.75
2022-10-22T20:48:59.560Z,11.78
2022-10-22T20:51:30.216Z,11.79
2022-10-22T20:54:00.692Z,11.82
2022-10-22T20:56:31.169Z,11.82
2022-10-22T20:59:05.302Z,11.82
2022-10-22T21:01:38.562Z,11.81
2022-10-22T21:04:09.901Z,11.81
2022-10-22T21:06:41.670Z,11.82
2022-10-22T21:09:13.430Z,11.81
2022-10-22T21:11:44.669Z,11.86
2022-10-22T21:14:16.729Z,11.86
2022-10-22T21:16:49.927Z,11.87
2022-10-22T21:19:22.452Z,11.86
2022-10-22T21:21:52.841Z,11.87
2022-10-22T21:24:24.757Z,11.88
2022-10-22T21:26:55.594Z,11.87
2022-10-22T21:29:26.009Z,11.91
2022-10-22T21:31:56.427Z,11.91
2022-10-22T21:34:26.901Z,11.91
2022-10-22T21:36:57.521Z,11.91
2022-10-22T21:39:28.061Z,11.91
2022-10-22T21:41:58.595Z,11.92
2022-10-22T21:44:29.218Z,11.92
2022-10-22T21:46:59.573Z,11.92
2022-10-22T21:49:29.976Z,11.92
2022-10-22T21:52:02.542Z,11.91
2022-10-22T21:54:33.047Z,11.89
2022-10-22T21:57:03.380Z,11.88
2022-10-22T21:59:33.860Z,11.88
2022-10-22T22:02:05.836Z,11.87
2022-10-22T22:04:37.061Z,11.85
2022-10-22T22:07:07.384Z,11.83
2022-10-22T22:09:37.899Z,11.79
2022-10-22T22:12:09.378Z,11.76
2022-10-22T22:14:39.801Z,11.72
2022-10-22T22:17:10.466Z,11.71
2022-10-22T22:19:41.275Z,11.70
2022-10-22T22:22:11.806Z,11.70
2022-10-22T22:24:42.305Z,11.69
2022-10-22T22:27:13.519Z,11.68
2022-10-22T22:29:43.963Z,11.66
2022-10-22T22:32:15.750Z,11.64
2022-10-22T22:34:46.277Z,11.65
2022-10-22T22:37:16.713Z,11.64
2022-10-22T22:39:47.182Z,11.65
2022-10-22T22:42:17.822Z,11.63
2022-10-22T22:44:48.222Z,11.66
2022-10-22T22:47:18.653Z,11.66
2022-10-22T22:49:49.125Z,11.64
2022-10-22T22:54:57.090Z,11.65
2022-10-22T22:57:27.521Z,11.65
2022-10-22T22:59:57.935Z,11.67
2022-10-22T23:02:28.455Z,11.68
2022-10-22T23:04:59.149Z,11.69
2022-10-22T23:07:29.522Z,11.68
2022-10-22T23:10:00.079Z,11.68
2022-10-22T23:12:32.790Z,11.67
2022-10-22T23:15:03.817Z,11.66
2022-10-22T23:17:34.228Z,11.65
2022-10-22T23:20:05.599Z,11.62
2022-10-22T23:22:36.042Z,11.59
2022-10-22T23:25:07.310Z,11.56
2022-10-22T23:27:37.660Z,11.53
2022-10-22T23:30:10.141Z,11.51
2022-10-22T23:32:40.532Z,11.49
2022-10-22T23:35:11.878Z,11.49
2022-10-22T23:37:42.825Z,11.47
2022-10-22T23:40:14.132Z,11.44
2022-10-22T23:42:44.870Z,11.43
2022-10-22T23:45:15.261Z,11.43
2022-10-22T23:47:45.600Z,11.44
2022-10-22T23:50:16.220Z,11.45
2022-10-22T23:52:46.953Z,11.45
2022-10-22T23:55:17.396Z,11.45
2022-10-22T23:57:48.075Z,11.45
